createdAt,value
2018-10-18T00:00:04.981Z,17.83
2018-10-18T00:02:33.389Z,17.87
2018-10-18T00:05:01.974Z,17.27
2018-10-18T00:07:30.397Z,16.77
2018-10-18T00:09:58.801Z,16.40
2018-10-18T00:12:27.258Z,16.43
2018-10-18T00:14:55.633Z,14.97
2018-10-18T00:17:29.434Z,16.13
2018-10-18T00:19:57.933Z,17.10
2018-10-18T00:22:26.317Z,16.17
2018-10-18T00:24:54.742Z,16.97
2018-10-18T00:27:23.177Z,16.27
2018-10-18T00:29:51.604Z,16.63
2018-10-18T00:32:20.002Z,15.30
2018-10-18T00:34:48.422Z,16.47
2018-10-18T00:37:16.797Z,15.93
2018-10-18T00:39:45.226Z,16.30
2018-10-18T00:42:13.699Z,15.73
2018-10-18T00:44:42.069Z,15.77
2018-10-18T00:47:10.514Z,16.27
2018-10-18T00:49:38.938Z,16.00
2018-10-18T00:52:07.365Z,16.30
2018-10-18T00:54:35.845Z,15.77
2018-10-18T00:57:04.262Z,16.33
2018-10-18T00:59:32.713Z,16.13
2018-10-18T01:02:01.154Z,16.17
2018-10-18T01:04:29.587Z,16.70
2018-10-18T01:06:57.978Z,15.23
2018-10-18T01:09:26.358Z,16.40
2018-10-18T01:11:54.851Z,15.13
2018-10-18T01:14:23.208Z,15.77
2018-10-18T01:16:56.703Z,16.03
2018-10-18T01:19:25.110Z,16.20
2018-10-18T01:21:53.553Z,16.33
2018-10-18T01:24:21.920Z,16.17
2018-10-18T01:26:50.354Z,15.97
2018-10-18T01:29:18.741Z,15.83
2018-10-18T01:31:47.166Z,15.83
2018-10-18T01:34:15.570Z,16.00
2018-10-18T01:36:44.014Z,16.40
2018-10-18T01:39:12.419Z,15.97
2018-10-18T01:41:41.404Z,16.57
2018-10-18T01:44:09.992Z,15.70
2018-10-18T01:46:38.475Z,16.20
2018-10-18T01:49:07.255Z,16.23
2018-10-18T01:51:35.813Z,16.27
2018-10-18T01:54:04.270Z,16.87
2018-10-18T01:56:32.727Z,15.67
2018-10-18T01:59:01.165Z,15.93
2018-10-18T02:01:30.270Z,17.20
2018-10-18T02:03:58.718Z,16.17
2018-10-18T02:06:27.198Z,16.13
2018-10-18T02:08:55.633Z,17.00
2018-10-18T02:11:24.030Z,16.97
2018-10-18T02:13:52.458Z,17.10
2018-10-18T02:16:20.859Z,16.53
2018-10-18T02:18:49.273Z,17.70
2018-10-18T02:21:17.673Z,17.87
2018-10-18T02:23:46.089Z,17.07
2018-10-18T02:26:14.534Z,16.93
2018-10-18T02:28:43.245Z,17.87
2018-10-18T02:31:11.815Z,17.03
2018-10-18T02:33:40.271Z,16.93
2018-10-18T02:36:08.740Z,17.27
2018-10-18T02:38:37.110Z,17.27
2018-10-18T02:41:05.582Z,17.73
2018-10-18T02:43:34.033Z,18.40
2018-10-18T02:46:02.922Z,18.43
2018-10-18T02:48:31.354Z,19.10
2018-10-18T02:50:59.766Z,19.83
2018-10-18T02:53:28.206Z,22.07
2018-10-18T02:55:56.602Z,21.50
2018-10-18T02:58:25.040Z,21.30
2018-10-18T03:00:53.445Z,21.70
2018-10-18T03:03:21.890Z,21.13
2018-10-18T03:05:50.282Z,21.30
2018-10-18T03:08:18.669Z,21.63
2018-10-18T03:10:47.090Z,20.67
2018-10-18T03:13:15.478Z,21.50
2018-10-18T03:15:43.890Z,21.53
2018-10-18T03:18:12.338Z,22.30
2018-10-18T03:20:40.730Z,23.30
2018-10-18T03:23:09.149Z,22.90
2018-10-18T03:25:37.569Z,23.63
2018-10-18T03:28:06.090Z,23.07
2018-10-18T03:30:34.553Z,22.63
2018-10-18T03:33:03.678Z,22.40
2018-10-18T03:35:32.151Z,21.33
2018-10-18T03:38:00.553Z,22.00
2018-10-18T03:40:28.985Z,22.17
2018-10-18T03:42:57.431Z,21.80
2018-10-18T03:45:26.126Z,20.07
2018-10-18T03:47:54.537Z,21.77
2018-10-18T03:50:22.948Z,20.57
2018-10-18T03:52:51.338Z,20.57
2018-10-18T03:55:19.777Z,20.23
2018-10-18T03:57:48.193Z,20.93
2018-10-18T04:00:16.882Z,21.30
2018-10-18T04:02:45.082Z,20.47
2018-10-18T04:05:13.465Z,20.87
2018-10-18T04:07:41.898Z,20.30
2018-10-18T04:10:10.293Z,20.00
2018-10-18T04:12:38.799Z,19.77
2018-10-18T04:15:07.463Z,18.13
2018-10-18T04:17:35.890Z,18.67
2018-10-18T04:20:04.427Z,17.93
2018-10-18T04:22:32.877Z,18.20
2018-10-18T04:25:01.990Z,19.33
2018-10-18T04:27:30.429Z,20.80
2018-10-18T04:29:58.835Z,22.10
2018-10-18T04:32:27.291Z,21.70
2018-10-18T04:34:55.690Z,20.23
2018-10-18T04:37:24.227Z,19.83
2018-10-18T04:39:52.543Z,18.93
2018-10-18T04:42:21.003Z,19.60
2018-10-18T04:44:49.397Z,19.40
2018-10-18T04:47:17.838Z,18.77
2018-10-18T04:49:46.246Z,18.57
2018-10-18T04:52:14.625Z,19.83
2018-10-18T04:54:43.060Z,19.23
2018-10-18T04:57:11.447Z,19.70
2018-10-18T04:59:40.273Z,19.50
2018-10-18T05:02:08.662Z,20.03
2018-10-18T05:04:37.081Z,19.17
2018-10-18T05:07:05.604Z,20.30
2018-10-18T05:09:34.341Z,19.53
2018-10-18T05:12:02.790Z,18.97
2018-10-18T05:14:31.210Z,19.53
2018-10-18T05:16:59.603Z,18.67
2018-10-18T05:19:28.031Z,18.43
2018-10-18T05:21:56.430Z,18.50
2018-10-18T05:24:24.866Z,18.07
2018-10-18T05:26:53.318Z,17.73
2018-10-18T05:29:21.745Z,18.20
2018-10-18T05:31:50.240Z,18.43
2018-10-18T05:34:18.610Z,18.77
2018-10-18T05:36:46.993Z,18.73
2018-10-18T05:39:15.443Z,18.47
2018-10-18T05:41:43.826Z,18.10
2018-10-18T05:44:12.270Z,19.80
2018-10-18T05:46:40.773Z,18.20
2018-10-18T05:49:09.247Z,19.23
2018-10-18T05:51:37.618Z,18.50
2018-10-18T05:54:06.079Z,18.87
2018-10-18T05:56:34.481Z,18.10
2018-10-18T05:59:02.929Z,18.80
2018-10-18T06:01:31.369Z,18.87
2018-10-18T06:03:59.761Z,19.83
2018-10-18T06:06:28.202Z,18.03
2018-10-18T06:08:56.593Z,18.87
2018-10-18T06:11:28.253Z,18.40
2018-10-18T06:13:56.650Z,18.77
2018-10-18T06:16:25.941Z,18.80
2018-10-18T06:18:54.444Z,18.30
2018-10-18T06:21:23.579Z,18.37
2018-10-18T06:23:52.016Z,17.77
2018-10-18T06:26:20.814Z,18.87
2018-10-18T06:28:49.794Z,18.40
2018-10-18T06:31:18.353Z,19.87
2018-10-18T06:33:46.960Z,23.00
2018-10-18T06:36:15.492Z,21.07
2018-10-18T06:38:44.034Z,21.13
2018-10-18T06:41:12.484Z,20.87
2018-10-18T06:43:41.858Z,21.60
2018-10-18T06:46:12.015Z,22.70
2018-10-18T06:48:41.085Z,20.10
2018-10-18T06:51:09.843Z,20.13
2018-10-18T06:53:38.353Z,19.37
2018-10-18T06:56:06.922Z,19.33
2018-10-18T06:58:35.505Z,18.90
2018-10-18T07:01:04.015Z,19.17
2018-10-18T07:03:32.447Z,20.10
2018-10-18T07:06:01.115Z,17.73
2018-10-18T07:08:29.641Z,18.03
2018-10-18T07:10:58.144Z,18.60
2018-10-18T07:13:26.533Z,19.27
2018-10-18T07:15:54.922Z,19.37
2018-10-18T07:18:23.358Z,19.67
2018-10-18T07:20:51.771Z,20.57
2018-10-18T07:23:20.175Z,21.10
2018-10-18T07:25:48.633Z,21.10
2018-10-18T07:28:17.074Z,23.17
2018-10-18T07:30:45.502Z,22.57
2018-10-18T07:33:13.951Z,22.40
2018-10-18T07:35:42.915Z,22.37
2018-10-18T07:38:12.903Z,23.60
2018-10-18T07:40:41.373Z,23.27
2018-10-18T07:43:09.911Z,22.67
2018-10-18T07:45:38.290Z,22.87
2018-10-18T07:48:06.814Z,23.97
2018-10-18T07:50:35.205Z,23.40
2018-10-18T07:53:03.687Z,24.53
2018-10-18T07:55:32.085Z,24.93
2018-10-18T07:58:00.496Z,24.03
2018-10-18T08:00:29.019Z,25.23
2018-10-18T08:02:57.379Z,26.17
2018-10-18T08:05:28.946Z,26.13
2018-10-18T08:07:57.422Z,26.53
2018-10-18T08:10:25.887Z,26.13
2018-10-18T08:12:54.352Z,26.97
2018-10-18T08:15:22.874Z,27.27
2018-10-18T08:17:52.174Z,26.23
2018-10-18T08:20:20.714Z,27.53
2018-10-18T08:22:50.322Z,27.97
2018-10-18T08:25:18.921Z,28.27
2018-10-18T08:27:49.366Z,28.57
2018-10-18T08:30:17.790Z,29.33
2018-10-18T08:32:46.270Z,30.60
2018-10-18T08:35:14.708Z,31.40
2018-10-18T08:37:43.284Z,30.07
2018-10-18T08:40:11.629Z,30.03
2018-10-18T08:42:40.122Z,31.10
2018-10-18T08:45:09.479Z,30.83
2018-10-18T08:47:37.932Z,32.73
2018-10-18T08:50:08.087Z,31.63
2018-10-18T08:52:36.608Z,30.73
2018-10-18T08:55:05.911Z,29.67
2018-10-18T08:57:34.339Z,32.47
2018-10-18T09:00:02.817Z,32.07
2018-10-18T09:02:32.111Z,30.53
2018-10-18T09:05:01.923Z,32.50
2018-10-18T09:07:31.369Z,32.03
2018-10-18T09:09:59.780Z,34.17
2018-10-18T09:12:28.226Z,36.07
2018-10-18T09:14:56.679Z,35.30
2018-10-18T09:17:25.106Z,35.70
2018-10-18T09:19:54.114Z,36.00
2018-10-18T09:22:22.528Z,34.87
2018-10-18T09:24:50.968Z,37.13
2018-10-18T09:27:20.037Z,35.97
2018-10-18T09:29:48.535Z,35.97
2018-10-18T09:32:17.027Z,36.93
2018-10-18T09:34:45.603Z,38.13
2018-10-18T09:37:14.257Z,38.30
2018-10-18T09:39:42.699Z,38.07
2018-10-18T09:42:11.258Z,35.17
2018-10-18T09:44:40.047Z,37.27
2018-10-18T09:47:09.248Z,36.80
2018-10-18T09:49:37.677Z,37.47
2018-10-18T09:52:06.162Z,38.73
2018-10-18T09:54:34.660Z,37.47
2018-10-18T09:57:03.343Z,38.77
2018-10-18T09:59:31.793Z,37.63
2018-10-18T10:02:05.380Z,38.43
2018-10-18T10:04:33.824Z,38.10
2018-10-18T10:07:02.967Z,39.07
2018-10-18T10:09:31.430Z,37.43
2018-10-18T10:11:59.829Z,38.93
2018-10-18T10:14:28.231Z,38.30
2018-10-18T10:16:56.703Z,40.47
2018-10-18T10:19:25.147Z,41.37
2018-10-18T10:21:53.787Z,37.40
2018-10-18T10:24:22.872Z,40.00
2018-10-18T10:26:51.335Z,38.73
2018-10-18T10:29:19.963Z,40.50
2018-10-18T10:31:48.410Z,39.23
2018-10-18T10:34:16.872Z,36.20
2018-10-18T10:36:45.346Z,36.33
2018-10-18T10:39:13.821Z,36.33
2018-10-18T10:41:42.221Z,34.40
2018-10-18T10:44:11.026Z,35.47
2018-10-18T10:46:40.678Z,38.40
2018-10-18T10:49:09.792Z,35.63
2018-10-18T10:51:38.422Z,35.37
2018-10-18T10:54:07.953Z,34.60
2018-10-18T10:56:36.399Z,38.60
2018-10-18T10:59:17.263Z,37.73
2018-10-18T11:01:45.806Z,42.83
2018-10-18T11:04:14.323Z,38.50
2018-10-18T11:06:42.873Z,39.37
2018-10-18T11:09:11.991Z,39.87
2018-10-18T11:11:40.424Z,40.30
2018-10-18T11:14:08.962Z,40.87
2018-10-18T11:16:37.446Z,38.90
2018-10-18T11:19:05.921Z,38.67
2018-10-18T11:21:34.424Z,33.93
2018-10-18T11:24:03.029Z,34.67
2018-10-18T11:26:31.468Z,34.70
2018-10-18T11:28:59.964Z,37.13
2018-10-18T11:31:28.474Z,34.47
2018-10-18T11:33:56.963Z,35.33
2018-10-18T11:36:25.573Z,36.77
2018-10-18T11:38:54.082Z,35.47
2018-10-18T11:41:22.687Z,34.97
2018-10-18T11:43:51.214Z,34.33
2018-10-18T11:46:19.729Z,32.50
2018-10-18T11:48:48.221Z,34.27
2018-10-18T11:51:16.653Z,32.23
2018-10-18T11:53:45.149Z,32.20
2018-10-18T11:56:13.698Z,30.30
2018-10-18T11:58:42.066Z,30.57
2018-10-18T12:01:10.550Z,29.77
2018-10-18T12:03:38.993Z,29.43
2018-10-18T12:06:07.416Z,29.97
2018-10-18T12:08:35.838Z,28.63
2018-10-18T12:11:04.438Z,27.40
2018-10-18T12:13:32.894Z,28.10
2018-10-18T12:16:01.965Z,29.13
2018-10-18T12:18:30.498Z,30.93
2018-10-18T12:20:58.942Z,27.30
2018-10-18T12:23:27.342Z,25.57
2018-10-18T12:25:55.797Z,27.33
2018-10-18T12:28:24.234Z,26.40
2018-10-18T12:30:52.706Z,25.73
2018-10-18T12:33:21.115Z,28.07
2018-10-18T12:35:49.610Z,26.30
2018-10-18T12:38:18.157Z,22.97
2018-10-18T12:40:46.639Z,25.00
2018-10-18T12:43:15.073Z,24.77
2018-10-18T12:45:43.586Z,22.47
2018-10-18T12:48:12.085Z,23.27
2018-10-18T12:50:40.505Z,22.03
2018-10-18T12:53:08.953Z,20.57
2018-10-18T12:55:37.408Z,22.63
2018-10-18T12:58:05.982Z,21.53
2018-10-18T13:00:34.462Z,20.07
2018-10-18T13:03:03.578Z,20.67
2018-10-18T13:05:31.986Z,20.90
2018-10-18T13:08:00.461Z,21.50
2018-10-18T13:10:28.875Z,21.87
2018-10-18T13:12:57.314Z,19.47
2018-10-18T13:15:25.745Z,21.10
2018-10-18T13:17:54.194Z,19.77
2018-10-18T13:20:22.673Z,20.13
2018-10-18T13:22:51.106Z,19.83
2018-10-18T13:25:19.536Z,20.17
2018-10-18T13:27:47.989Z,21.33
2018-10-18T13:30:16.516Z,21.63
2018-10-18T13:32:44.948Z,21.23
2018-10-18T13:35:13.402Z,22.27
2018-10-18T13:37:41.890Z,20.77
2018-10-18T13:40:10.321Z,21.03
2018-10-18T13:42:39.886Z,21.57
2018-10-18T13:45:08.574Z,22.40
2018-10-18T13:47:37.150Z,22.57
2018-10-18T13:50:06.235Z,21.02
2018-10-18T13:52:34.787Z,22.40
2018-10-18T13:55:03.650Z,20.27
2018-10-18T13:57:32.176Z,22.15
2018-10-18T14:00:22.995Z,22.32
2018-10-18T14:02:52.562Z,21.00
2018-10-18T14:05:21.397Z,22.50
2018-10-18T14:07:50.837Z,24.75
2018-10-18T14:10:19.339Z,24.30
2018-10-18T14:12:47.912Z,22.95
2018-10-18T14:15:16.897Z,24.37
2018-10-18T14:17:45.380Z,24.20
2018-10-18T14:20:15.531Z,21.85
2018-10-18T14:22:43.855Z,24.45
2018-10-18T14:25:12.389Z,23.73
2018-10-18T14:27:40.926Z,23.73
2018-10-18T14:30:10.751Z,26.17
2018-10-18T14:32:39.163Z,25.20
2018-10-18T14:35:08.723Z,25.40
2018-10-18T14:37:37.054Z,24.12
2018-10-18T14:40:06.013Z,27.60
2018-10-18T14:42:34.517Z,25.05
2018-10-18T14:45:04.368Z,25.48
2018-10-18T14:47:32.805Z,24.60
2018-10-18T14:50:02.023Z,26.27
2018-10-18T14:52:30.420Z,26.97
2018-10-18T14:54:58.850Z,27.17
2018-10-18T14:57:27.298Z,26.77
2018-10-18T14:59:55.713Z,26.62
2018-10-18T15:02:24.165Z,27.42
2018-10-18T15:04:52.658Z,26.48
2018-10-18T15:07:21.174Z,26.93
2018-10-18T15:09:49.622Z,26.80
2018-10-18T15:12:18.843Z,27.25
2018-10-18T15:14:47.314Z,28.00
2018-10-18T15:17:15.877Z,27.17
2018-10-18T15:19:44.292Z,28.07
2018-10-18T15:22:12.741Z,28.20
2018-10-18T15:24:41.165Z,27.52
2018-10-18T15:27:09.691Z,25.02
2018-10-18T15:29:38.097Z,26.30
2018-10-18T15:32:07.420Z,25.82
2018-10-18T15:34:35.755Z,26.45
2018-10-18T15:37:09.206Z,26.40
2018-10-18T15:39:37.698Z,26.52
2018-10-18T15:42:06.500Z,25.02
2018-10-18T15:44:35.191Z,23.90
2018-10-18T15:47:03.871Z,23.52
2018-10-18T15:49:32.282Z,22.40
2018-10-18T15:52:00.973Z,24.90
2018-10-18T15:54:29.516Z,23.77
2018-10-18T15:56:57.899Z,23.70
2018-10-18T15:59:26.641Z,21.73
2018-10-18T16:01:55.069Z,23.17
2018-10-18T16:04:23.540Z,23.95
2018-10-18T16:06:52.000Z,23.87
2018-10-18T16:09:20.497Z,23.43
2018-10-18T16:11:48.902Z,23.73
2018-10-18T16:14:17.440Z,23.67
2018-10-18T16:16:45.822Z,24.03
2018-10-18T16:19:14.491Z,23.13
2018-10-18T16:21:42.900Z,23.93
2018-10-18T16:24:12.034Z,24.37
2018-10-18T16:26:40.466Z,24.73
2018-10-18T16:29:09.022Z,23.57
2018-10-18T16:31:37.391Z,24.27
2018-10-18T16:34:07.641Z,24.00
2018-10-18T16:36:36.132Z,23.23
2018-10-18T16:39:07.217Z,23.93
2018-10-18T16:41:35.837Z,24.07
2018-10-18T16:44:04.336Z,23.53
2018-10-18T16:46:32.706Z,24.47
2018-10-18T16:49:01.931Z,24.63
2018-10-18T16:51:30.327Z,25.53
2018-10-18T16:53:58.897Z,25.37
2018-10-18T16:56:27.301Z,23.93
2018-10-18T16:58:56.899Z,23.10
2018-10-18T17:01:25.451Z,25.17
2018-10-18T17:03:53.938Z,24.87
2018-10-18T17:06:22.386Z,24.80
2018-10-18T17:08:50.815Z,25.13
2018-10-18T17:11:19.394Z,25.27
2018-10-18T17:13:48.459Z,25.77
2018-10-18T17:16:19.030Z,27.03
2018-10-18T17:18:47.619Z,26.00
2018-10-18T17:21:16.648Z,26.43
2018-10-18T17:23:45.013Z,26.33
2018-10-18T17:26:13.561Z,26.70
2018-10-18T17:28:41.897Z,26.37
2018-10-18T17:31:10.367Z,27.33
2018-10-18T17:33:38.787Z,25.03
2018-10-18T17:36:07.354Z,25.90
2018-10-18T17:38:35.754Z,25.30
2018-10-18T17:41:04.469Z,24.20
2018-10-18T17:43:32.986Z,24.07
2018-10-18T17:46:01.704Z,23.47
2018-10-18T17:48:30.138Z,23.73
2018-10-18T17:50:58.590Z,23.27
2018-10-18T17:53:27.801Z,23.07
2018-10-18T17:55:59.121Z,22.10
2018-10-18T17:58:27.611Z,21.63
2018-10-18T18:00:56.036Z,21.57
2018-10-18T18:03:24.790Z,25.77
2018-10-18T18:05:53.292Z,25.97
2018-10-18T18:08:21.950Z,25.87
2018-10-18T18:10:51.858Z,25.20
2018-10-18T18:13:20.345Z,27.13
2018-10-18T18:15:48.757Z,25.70
2018-10-18T18:18:17.257Z,26.57
2018-10-18T18:20:45.736Z,25.60
2018-10-18T18:23:14.161Z,24.07
2018-10-18T18:25:43.455Z,23.90
2018-10-18T18:28:11.933Z,23.50
2018-10-18T18:30:40.350Z,23.30
2018-10-18T18:33:08.824Z,21.83
2018-10-18T18:35:37.294Z,24.33
2018-10-18T18:38:05.809Z,23.70
2018-10-18T18:40:34.246Z,25.00
2018-10-18T18:43:03.416Z,24.30
2018-10-18T18:45:33.845Z,25.33
2018-10-18T18:48:02.666Z,25.10
2018-10-18T18:50:31.267Z,23.27
2018-10-18T18:52:59.732Z,24.70
2018-10-18T18:55:28.183Z,24.73
2018-10-18T18:57:56.613Z,24.33
2018-10-18T19:00:25.870Z,24.40
2018-10-18T19:02:54.304Z,24.50
2018-10-18T19:08:24.167Z,25.60
2018-10-18T19:10:52.754Z,24.00
2018-10-18T19:13:21.572Z,26.57
2018-10-18T19:15:51.773Z,25.17
2018-10-18T19:18:20.767Z,25.43
2018-10-18T19:20:49.250Z,28.17
2018-10-18T19:23:17.855Z,27.97
2018-10-18T19:25:46.306Z,28.43
2018-10-18T19:28:14.848Z,26.63
2018-10-18T19:30:43.326Z,27.30
2018-10-18T19:33:11.733Z,25.90
2018-10-18T19:35:40.178Z,26.10
2018-10-18T19:38:08.707Z,28.13
2018-10-18T19:40:37.186Z,26.80
2018-10-18T19:43:06.138Z,26.63
2018-10-18T19:45:34.635Z,25.07
2018-10-18T19:48:03.669Z,25.27
2018-10-18T19:50:32.163Z,25.13
2018-10-18T19:53:00.612Z,23.90
2018-10-18T19:55:35.571Z,26.87
2018-10-18T19:58:04.014Z,25.47
2018-10-18T20:00:32.450Z,28.27
2018-10-18T20:03:00.893Z,28.23
2018-10-18T20:05:29.394Z,27.63
2018-10-18T20:07:58.076Z,27.07
2018-10-18T20:10:26.483Z,26.93
2018-10-18T20:12:55.023Z,25.93
2018-10-18T20:15:23.405Z,27.23
2018-10-18T20:17:51.869Z,27.83
2018-10-18T20:20:20.363Z,28.13
2018-10-18T20:22:48.810Z,29.57
2018-10-18T20:25:17.402Z,27.03
2018-10-18T20:27:45.833Z,28.27
2018-10-18T20:30:15.284Z,27.80
2018-10-18T20:32:43.881Z,27.67
2018-10-18T20:35:12.413Z,28.80
2018-10-18T20:37:41.458Z,28.00
2018-10-18T20:40:12.358Z,28.60
2018-10-18T20:42:41.009Z,28.00
2018-10-18T20:45:13.729Z,28.73
2018-10-18T20:47:42.472Z,28.17
2018-10-18T20:50:10.994Z,28.33
2018-10-18T20:52:39.446Z,29.50
2018-10-18T20:55:08.411Z,29.03
2018-10-18T20:57:36.889Z,29.67
2018-10-18T21:00:05.944Z,29.60
2018-10-18T21:02:34.327Z,30.40
2018-10-18T21:05:02.962Z,30.93
2018-10-18T21:07:31.451Z,29.63
2018-10-18T21:09:59.994Z,29.43
2018-10-18T21:12:28.460Z,29.10
2018-10-18T21:14:56.908Z,29.80
2018-10-18T21:17:25.378Z,31.47
2018-10-18T21:19:53.845Z,29.17
2018-10-18T21:22:22.338Z,30.53
2018-10-18T21:24:50.795Z,29.30
2018-10-18T21:27:19.201Z,29.07
2018-10-18T21:29:47.666Z,29.07
2018-10-18T21:32:16.128Z,28.67
2018-10-18T21:34:44.594Z,28.30
2018-10-18T21:37:13.034Z,27.67
2018-10-18T21:39:41.981Z,28.97
2018-10-18T21:42:10.439Z,28.23
2018-10-18T21:44:39.114Z,27.90
2018-10-18T21:47:07.633Z,26.70
2018-10-18T21:49:36.052Z,28.00
2018-10-18T21:52:04.532Z,27.80
2018-10-18T21:54:32.921Z,27.03
2018-10-18T21:57:01.402Z,27.43
2018-10-18T21:59:29.774Z,27.90
2018-10-18T22:01:58.258Z,28.03
2018-10-18T22:04:26.670Z,28.27
2018-10-18T22:06:55.098Z,27.30
2018-10-18T22:09:23.530Z,27.30
2018-10-18T22:11:51.974Z,28.03
2018-10-18T22:14:20.430Z,27.40
2018-10-18T22:16:48.857Z,27.57
2018-10-18T22:19:17.394Z,28.97
2018-10-18T22:21:45.879Z,28.70
2018-10-18T22:24:14.293Z,27.83
2018-10-18T22:26:42.734Z,28.07
2018-10-18T22:29:11.225Z,27.33
2018-10-18T22:31:39.622Z,26.43
2018-10-18T22:34:08.063Z,27.50
2018-10-18T22:36:36.517Z,28.13
2018-10-18T22:39:08.087Z,28.67
2018-10-18T22:41:36.593Z,28.87
2018-10-18T22:44:05.768Z,29.30
2018-10-18T22:46:34.214Z,29.43
2018-10-18T22:49:02.886Z,27.73
2018-10-18T22:51:31.290Z,27.70
2018-10-18T22:53:59.714Z,28.33
2018-10-18T22:56:28.202Z,28.10
2018-10-18T22:58:56.647Z,29.37
2018-10-18T23:01:25.085Z,28.77
2018-10-18T23:03:53.538Z,29.10
2018-10-18T23:06:21.937Z,29.40
2018-10-18T23:08:50.369Z,29.30
2018-10-18T23:11:18.763Z,29.67
2018-10-18T23:13:47.234Z,30.43
2018-10-18T23:16:15.634Z,30.03
2018-10-18T23:18:44.097Z,31.07
2018-10-18T23:21:12.545Z,29.90
2018-10-18T23:23:40.996Z,29.83
2018-10-18T23:26:09.413Z,29.33
2018-10-18T23:28:37.845Z,28.63
2018-10-18T23:31:06.265Z,29.83
2018-10-18T23:33:34.709Z,28.90
2018-10-18T23:36:03.623Z,29.40
2018-10-18T23:38:32.058Z,28.47
2018-10-18T23:41:00.518Z,28.70
2018-10-18T23:43:28.941Z,28.53
2018-10-18T23:46:04.064Z,28.57
2018-10-18T23:48:32.524Z,30.07
2018-10-18T23:51:01.050Z,28.70
2018-10-18T23:53:29.426Z,30.23
2018-10-18T23:55:57.866Z,28.13
2018-10-18T23:58:26.314Z,29.30
